Time;durP1;ratioP1;P1;durP2;ratioP2;P2;SDS_P1;SDS_P2;PMS_P1;PMS_P2;Temp;Humidity;BMP_temperature;BMP_pressure;BME280_temperature;BME280_humidity;BME280_pressure;Samples;Min_cycle;Max_cycle;Signal;HPM_P1;HPM_P2
2023/04/09 00:01:02;;;;;;;7.22;3.38;;;;;;;;;;6320347;22;20307;-80
2023/04/09 00:03:36;;;;;;;4.15;2.58;;;;;;;;;;6310270;22;20514;-81
2023/04/09 00:06:02;;;;;;;5.35;2.58;;;;;;;;;;6313031;22;20349;-79
2023/04/09 00:08:28;;;;;;;6.38;2.75;;;;;;;;;;6319390;22;19998;-80
2023/04/09 00:10:55;;;;;;;3.22;2.67;;;;;;;;;;6313432;22;20053;-80
2023/04/09 00:13:24;;;;;;;4.55;2.85;;;;;;;;;;6308057;22;20326;-80
2023/04/09 00:15:53;;;;;;;6.00;2.47;;;;;;;;;;6310897;22;20004;-80
2023/04/09 00:18:19;;;;;;;7.72;3.53;;;;;;;;;;6318901;22;20014;-80
2023/04/09 00:20:45;;;;;;;2.83;2.35;;;;;;;;;;6313511;22;20072;-79
2023/04/09 00:23:19;;;;;;;3.92;2.50;;;;;;;;;;6314280;22;20009;-79
2023/04/09 00:25:45;;;;;;;5.75;2.45;;;;;;;;;;6311972;22;20007;-80
2023/04/09 00:28:11;;;;;;;9.70;2.80;;;;;;;;;;6317702;22;20375;-80
2023/04/09 00:30:37;;;;;;;5.28;2.33;;;;;;;;;;6310876;22;20011;-80
2023/04/09 00:33:07;;;;;;;3.85;2.30;;;;;;;;;;6309363;22;20055;-80
2023/04/09 00:35:36;;;;;;;5.47;2.72;;;;;;;;;;6312396;22;20341;-79
2023/04/09 00:38:02;;;;;;;3.13;2.60;;;;;;;;;;6319638;22;20003;-79
2023/04/09 00:40:28;;;;;;;6.65;2.97;;;;;;;;;;6309900;22;20354;-80
2023/04/09 00:42:55;;;;;;;5.22;2.65;;;;;;;;;;6320075;22;20052;-83
2023/04/09 00:45:22;;;;;;;2.78;2.22;;;;;;;;;;6316042;22;20052;-81
2023/04/09 00:47:48;;;;;;;4.57;2.35;;;;;;;;;;6326215;22;20299;-80
2023/04/09 00:50:17;;;;;;;5.05;3.05;;;;;;;;;;6312749;22;20055;-79
2023/04/09 00:52:43;;;;;;;5.28;2.50;;;;;;;;;;6316136;22;19987;-80
2023/04/09 00:55:09;;;;;;;5.32;3.08;;;;;;;;;;6319172;22;20469;-79
2023/04/09 00:57:37;;;;;;;5.43;2.70;;;;;;;;;;6319866;22;20018;-81
2023/04/09 01:00:06;;;;;;;4.07;2.85;;;;;;;;;;6314620;22;20003;-80
2023/04/09 01:02:35;;;;;;;4.38;2.47;;;;;;;;;;6312362;22;20504;-81
2023/04/09 01:05:01;;;;;;;6.53;2.38;;;;;;;;;;6322797;22;20485;-80
2023/04/09 01:07:56;;;;;;;4.35;2.50;;;;;;;;;;6315533;22;20067;-80
2023/04/09 01:10:40;;;;;;;5.47;3.10;;;;;;;;;;6327634;22;19999;-81
2023/04/09 01:13:19;;;;;;;4.82;2.97;;;;;;;;;;6325476;22;20086;-80
2023/04/09 01:15:53;;;;;;;6.00;2.60;;;;;;;;;;6324274;22;20003;-80
2023/04/09 01:18:31;;;;;;;4.72;2.80;;;;;;;;;;6315803;22;20007;-82
2023/04/09 01:21:11;;;;;;;4.28;2.92;;;;;;;;;;6316223;22;20392;-82
2023/04/09 01:23:50;;;;;;;9.70;3.75;;;;;;;;;;6321424;22;19999;-82
2023/04/09 01:26:40;;;;;;;6.05;3.38;;;;;;;;;;6316399;22;20090;-82
2023/04/09 01:29:06;;;;;;;7.30;3.35;;;;;;;;;;6319420;22;20082;-82
2023/04/09 01:31:35;;;;;;;5.85;3.50;;;;;;;;;;6319570;22;20023;-81
2023/04/09 01:34:02;;;;;;;7.88;3.40;;;;;;;;;;6309363;22;20039;-82
2023/04/09 01:36:30;;;;;;;8.02;3.40;;;;;;;;;;6314792;22;20010;-81
2023/04/09 01:38:56;;;;;;;7.68;3.85;;;;;;;;;;6323760;22;20003;-82
2023/04/09 01:41:26;;;;;;;6.95;3.53;;;;;;;;;;6326144;22;20003;-82
2023/04/09 01:43:52;;;;;;;6.45;3.08;;;;;;;;;;6316294;22;20410;-81
2023/04/09 01:46:19;;;;;;;5.22;3.05;;;;;;;;;;6319541;22;20004;-82
2023/04/09 01:48:45;;;;;;;8.25;3.42;;;;;;;;;;6317719;22;19987;-81
2023/04/09 01:51:16;;;;;;;6.20;3.60;;;;;;;;;;6315933;22;20014;-82
2023/04/09 01:53:42;;;;;;;7.25;3.83;;;;;;;;;;6321227;22;19995;-81
2023/04/09 01:56:09;;;;;;;8.02;4.22;;;;;;;;;;6315706;22;20078;-82
2023/04/09 01:58:35;;;;;;;6.22;3.83;;;;;;;;;;6313964;22;20007;-80
2023/04/09 02:01:24;;;;;;;11.35;4.45;;;;;;;;;;6309117;22;19999;-81
2023/04/09 02:03:59;;;;;;;9.90;4.50;;;;;;;;;;6292878;22;20093;-81
2023/04/09 02:06:31;;;;;;;5.50;3.72;;;;;;;;;;6309338;22;20241;-80
2023/04/09 02:09:00;;;;;;;8.02;3.85;;;;;;;;;;6310667;22;20577;-80
2023/04/09 02:11:28;;;;;;;8.55;4.68;;;;;;;;;;6311074;22;20004;-81
2023/04/09 02:13:56;;;;;;;5.70;3.63;;;;;;;;;;6326052;22;19995;-82
2023/04/09 02:16:22;;;;;;;7.63;3.78;;;;;;;;;;6326113;22;20050;-80
2023/04/09 02:18:53;;;;;;;6.65;3.38;;;;;;;;;;6322796;22;19983;-82
2023/04/09 02:21:19;;;;;;;4.60;3.72;;;;;;;;;;6314423;22;20049;-81
2023/04/09 02:23:49;;;;;;;7.55;3.60;;;;;;;;;;6315215;22;20311;-81
2023/04/09 02:26:17;;;;;;;6.60;4.03;;;;;;;;;;6315352;22;19999;-81
2023/04/09 02:28:47;;;;;;;5.53;3.22;;;;;;;;;;6315616;22;20004;-81
2023/04/09 02:31:13;;;;;;;3.88;3.38;;;;;;;;;;6315035;22;20453;-81
2023/04/09 02:33:40;;;;;;;4.90;3.53;;;;;;;;;;6313156;22;20015;-81
2023/04/09 02:36:08;;;;;;;9.45;3.42;;;;;;;;;;6325628;22;20029;-81
2023/04/09 02:38:35;;;;;;;5.32;3.30;;;;;;;;;;6324902;22;20014;-80
2023/04/09 02:41:01;;;;;;;6.00;3.83;;;;;;;;;;6323348;22;20500;-82
2023/04/09 02:43:29;;;;;;;7.47;3.83;;;;;;;;;;6323869;22;20003;-82
2023/04/09 02:45:58;;;;;;;4.57;3.47;;;;;;;;;;6316406;22;19999;-81
2023/04/09 02:48:24;;;;;;;6.32;3.13;;;;;;;;;;6316180;22;20075;-81
2023/04/09 02:50:50;;;;;;;7.70;3.28;;;;;;;;;;6316854;22;20003;-81
2023/04/09 02:53:16;;;;;;;8.98;3.38;;;;;;;;;;6309285;22;20025;-81
2023/04/09 02:55:43;;;;;;;6.75;3.60;;;;;;;;;;6314093;22;20037;-81
2023/04/09 02:58:09;;;;;;;10.20;3.58;;;;;;;;;;6309886;22;20477;-81
2023/04/09 03:00:35;;;;;;;8.00;3.70;;;;;;;;;;6312026;22;20100;-82
2023/04/09 03:03:01;;;;;;;8.18;3.75;;;;;;;;;;6314669;22;20007;-81
2023/04/09 03:05:27;;;;;;;5.78;3.45;;;;;;;;;;6309907;22;19999;-81
2023/04/09 03:07:53;;;;;;;8.45;3.03;;;;;;;;;;6311063;22;20033;-80
2023/04/09 03:10:20;;;;;;;5.53;3.78;;;;;;;;;;6313686;22;20519;-81
2023/04/09 03:12:46;;;;;;;7.35;3.15;;;;;;;;;;6313460;22;20117;-81
2023/04/09 03:15:15;;;;;;;7.70;3.30;;;;;;;;;;6314205;22;20518;-81
2023/04/09 03:17:41;;;;;;;6.38;4.25;;;;;;;;;;6312683;22;19999;-81
2023/04/09 03:20:07;;;;;;;5.78;3.60;;;;;;;;;;6309836;22;20029;-81
2023/04/09 03:22:37;;;;;;;5.60;3.28;;;;;;;;;;6314115;22;20010;-81
2023/04/09 03:25:03;;;;;;;9.43;3.38;;;;;;;;;;6311669;22;20014;-81
2023/04/09 03:27:29;;;;;;;7.60;3.30;;;;;;;;;;6312482;22;20002;-82
2023/04/09 03:29:56;;;;;;;9.02;3.55;;;;;;;;;;6311304;22;20041;-80
2023/04/09 03:32:22;;;;;;;6.13;3.63;;;;;;;;;;6309450;22;20010;-80
2023/04/09 03:34:48;;;;;;;7.75;2.80;;;;;;;;;;6311461;22;20429;-80
2023/04/09 03:37:14;;;;;;;6.03;3.10;;;;;;;;;;6307135;22;20086;-81
2023/04/09 03:39:40;;;;;;;6.28;3.10;;;;;;;;;;6309704;22;20007;-81
2023/04/09 03:42:07;;;;;;;6.10;3.63;;;;;;;;;;6312222;22;20045;-79
2023/04/09 03:44:33;;;;;;;6.07;3.38;;;;;;;;;;6309620;22;20007;-82
2023/04/09 03:46:59;;;;;;;6.20;3.22;;;;;;;;;;6314169;22;19995;-82
2023/04/09 03:49:25;;;;;;;8.25;3.63;;;;;;;;;;6314500;22;20021;-81
2023/04/09 03:51:51;;;;;;;4.30;3.80;;;;;;;;;;6313790;22;20082;-82
2023/04/09 03:54:17;;;;;;;7.70;3.50;;;;;;;;;;6315657;22;20448;-81
2023/04/09 03:56:44;;;;;;;7.43;4.22;;;;;;;;;;6313050;22;20010;-80
2023/04/09 03:59:10;;;;;;;6.63;3.78;;;;;;;;;;6310306;22;20010;-80
2023/04/09 04:01:36;;;;;;;9.23;4.07;;;;;;;;;;6307817;22;20350;-81
2023/04/09 04:04:03;;;;;;;5.93;3.80;;;;;;;;;;6313484;22;20007;-80
2023/04/09 04:06:30;;;;;;;6.78;3.72;;;;;;;;;;6314868;22;20003;-80
2023/04/09 04:08:56;;;;;;;6.30;3.35;;;;;;;;;;6322201;22;20000;-79
2023/04/09 04:11:22;;;;;;;5.38;3.80;;;;;;;;;;6314199;22;20479;-80
2023/04/09 04:13:51;;;;;;;7.85;4.47;;;;;;;;;;6311215;22;20010;-81
2023/04/09 04:16:17;;;;;;;9.23;3.95;;;;;;;;;;6317425;22;20007;-80
2023/04/09 04:18:43;;;;;;;7.80;4.30;;;;;;;;;;6312697;22;20062;-81
2023/04/09 04:21:13;;;;;;;5.50;3.65;;;;;;;;;;6316957;22;20037;-80
2023/04/09 04:23:39;;;;;;;7.75;4.53;;;;;;;;;;6322940;22;20087;-83
2023/04/09 04:26:11;;;;;;;7.40;3.60;;;;;;;;;;6316041;22;20013;-81
2023/04/09 04:28:38;;;;;;;6.32;4.07;;;;;;;;;;6321051;22;20120;-81
2023/04/09 04:31:14;;;;;;;7.03;3.90;;;;;;;;;;6318664;22;20017;-81
2023/04/09 04:33:41;;;;;;;7.13;4.38;;;;;;;;;;6316354;22;20003;-80
2023/04/09 04:36:11;;;;;;;13.80;4.60;;;;;;;;;;6314523;22;20033;-79
2023/04/09 04:38:38;;;;;;;8.27;3.55;;;;;;;;;;6315129;22;20075;-81
2023/04/09 04:41:05;;;;;;;8.77;3.97;;;;;;;;;;6297024;22;20007;-80
2023/04/09 04:43:31;;;;;;;8.77;3.97;;;;;;;;;;6313471;22;20014;-80
2023/04/09 04:45:57;;;;;;;8.75;3.80;;;;;;;;;;6311262;22;20335;-81
2023/04/09 04:48:23;;;;;;;8.18;4.70;;;;;;;;;;6317300;22;20003;-80
2023/04/09 04:51:00;;;;;;;6.32;3.63;;;;;;;;;;6321133;22;20086;-80
2023/04/09 04:53:26;;;;;;;7.30;3.28;;;;;;;;;;6316565;22;19995;-80
2023/04/09 04:55:53;;;;;;;7.07;3.97;;;;;;;;;;6319494;22;20030;-80
2023/04/09 04:58:19;;;;;;;7.07;4.20;;;;;;;;;;6312450;22;20010;-80
2023/04/09 05:00:45;;;;;;;9.10;3.75;;;;;;;;;;6310517;22;20022;-80
2023/04/09 05:03:12;;;;;;;6.78;4.00;;;;;;;;;;6314985;22;19999;-80
2023/04/09 05:05:38;;;;;;;9.25;3.83;;;;;;;;;;6312775;22;20003;-80
2023/04/09 05:08:04;;;;;;;13.63;4.18;;;;;;;;;;6314190;22;20029;-81
2023/04/09 05:10:30;;;;;;;7.55;3.30;;;;;;;;;;6314136;22;20021;-81
2023/04/09 05:12:56;;;;;;;6.60;3.65;;;;;;;;;;6316902;22;19992;-80
2023/04/09 05:15:22;;;;;;;11.02;3.72;;;;;;;;;;6315946;22;20011;-81
2023/04/09 05:17:49;;;;;;;8.88;4.28;;;;;;;;;;6311900;22;20044;-80
2023/04/09 05:20:15;;;;;;;6.13;3.70;;;;;;;;;;6311691;22;20007;-80
2023/04/09 05:22:41;;;;;;;5.95;3.67;;;;;;;;;;6320703;22;20007;-80
2023/04/09 05:25:08;;;;;;;7.15;3.58;;;;;;;;;;6317087;22;20007;-80
2023/04/09 05:27:37;;;;;;;11.73;5.82;;;;;;;;;;6316800;22;19999;-80
2023/04/09 05:30:03;;;;;;;9.98;3.70;;;;;;;;;;6312828;22;20141;-80
2023/04/09 05:32:30;;;;;;;7.30;3.95;;;;;;;;;;6315172;22;20317;-80
2023/04/09 05:34:56;;;;;;;7.78;3.97;;;;;;;;;;6317049;22;20025;-81
2023/04/09 05:37:22;;;;;;;8.95;4.03;;;;;;;;;;6314563;22;20038;-80
2023/04/09 05:39:48;;;;;;;7.85;3.60;;;;;;;;;;6317244;22;20032;-81
2023/04/09 05:42:14;;;;;;;6.05;3.53;;;;;;;;;;6315988;22;20007;-81
2023/04/09 05:44:40;;;;;;;7.15;4.00;;;;;;;;;;6314025;22;20011;-81
2023/04/09 05:47:09;;;;;;;8.07;3.90;;;;;;;;;;6318368;22;20070;-81
2023/04/09 05:49:42;;;;;;;9.50;4.75;;;;;;;;;;6315511;22;20033;-82
2023/04/09 05:52:12;;;;;;;8.23;3.78;;;;;;;;;;6315902;22;20007;-81
2023/04/09 05:54:38;;;;;;;9.18;4.03;;;;;;;;;;6313998;22;20011;-80
2023/04/09 05:57:05;;;;;;;9.02;4.53;;;;;;;;;;6311887;22;20007;-80
2023/04/09 05:59:32;;;;;;;7.80;3.83;;;;;;;;;;6314691;22;20010;-81
2023/04/09 06:01:58;;;;;;;7.97;5.47;;;;;;;;;;6310567;22;20026;-80
2023/04/09 06:04:24;;;;;;;6.22;3.50;;;;;;;;;;6314083;22;20007;-80
2023/04/09 06:06:50;;;;;;;10.35;3.92;;;;;;;;;;6310412;22;20003;-80
2023/04/09 06:09:17;;;;;;;17.05;4.53;;;;;;;;;;6312833;22;19999;-80
2023/04/09 06:11:43;;;;;;;5.78;4.10;;;;;;;;;;6316762;22;19995;-80
2023/04/09 06:14:11;;;;;;;16.45;5.30;;;;;;;;;;6325174;22;20007;-81
2023/04/09 06:16:40;;;;;;;7.57;3.75;;;;;;;;;;6325632;22;20116;-80
2023/04/09 06:19:06;;;;;;;8.50;4.75;;;;;;;;;;6329733;22;20082;-81
2023/04/09 06:21:32;;;;;;;9.10;4.47;;;;;;;;;;6329228;22;20086;-81
2023/04/09 06:23:58;;;;;;;7.97;4.55;;;;;;;;;;6322905;22;20041;-80
2023/04/09 06:26:25;;;;;;;10.55;4.40;;;;;;;;;;6319551;22;19999;-81
2023/04/09 06:28:51;;;;;;;8.13;4.57;;;;;;;;;;6316113;22;20007;-81
2023/04/09 06:31:17;;;;;;;12.57;4.45;;;;;;;;;;6313074;22;20023;-81
2023/04/09 06:33:43;;;;;;;9.23;4.10;;;;;;;;;;6312645;22;20007;-81
2023/04/09 06:36:09;;;;;;;5.78;4.03;;;;;;;;;;6313118;22;20018;-81
2023/04/09 06:38:35;;;;;;;7.43;4.18;;;;;;;;;;6319327;22;20009;-81
2023/04/09 06:41:02;;;;;;;6.13;4.05;;;;;;;;;;6321159;22;20034;-82
2023/04/09 06:43:35;;;;;;;9.15;4.28;;;;;;;;;;6327336;22;20027;-80
2023/04/09 06:46:12;;;;;;;7.15;3.97;;;;;;;;;;6324720;22;20023;-81
2023/04/09 06:48:38;;;;;;;9.32;4.35;;;;;;;;;;6324044;22;20406;-82
2023/04/09 06:51:14;;;;;;;8.20;4.07;;;;;;;;;;6321787;22;19991;-82
2023/04/09 06:53:40;;;;;;;6.95;4.38;;;;;;;;;;6324998;22;20014;-80
2023/04/09 06:56:07;;;;;;;12.15;4.70;;;;;;;;;;6326244;22;19995;-81
2023/04/09 06:58:36;;;;;;;7.95;4.18;;;;;;;;;;6325507;22;20365;-81
2023/04/09 07:01:03;;;;;;;6.97;4.55;;;;;;;;;;6330415;22;19979;-82
2023/04/09 07:03:29;;;;;;;7.80;4.80;;;;;;;;;;6327369;22;19999;-81
2023/04/09 07:05:56;;;;;;;5.55;3.92;;;;;;;;;;6322348;22;20029;-81
2023/04/09 07:08:22;;;;;;;10.80;4.10;;;;;;;;;;6321379;22;20002;-81
2023/04/09 07:10:49;;;;;;;9.32;4.32;;;;;;;;;;6321637;22;19999;-81
2023/04/09 07:13:15;;;;;;;8.10;3.70;;;;;;;;;;6317235;22;19991;-80
2023/04/09 07:15:41;;;;;;;6.55;4.88;;;;;;;;;;6316441;22;19999;-80
2023/04/09 07:18:07;;;;;;;7.25;4.10;;;;;;;;;;6317753;22;19999;-81
2023/04/09 07:20:33;;;;;;;7.38;3.30;;;;;;;;;;6325307;22;20018;-81
2023/04/09 07:23:13;;;;;;;8.40;4.45;;;;;;;;;;6323450;22;20003;-82
2023/04/09 07:25:39;;;;;;;8.45;3.83;;;;;;;;;;6326713;22;20014;-81
2023/04/09 07:28:06;;;;;;;6.68;3.42;;;;;;;;;;6324350;22;19999;-82
2023/04/09 07:30:33;;;;;;;13.23;3.80;;;;;;;;;;6325026;22;20018;-81
2023/04/09 07:32:59;;;;;;;8.20;3.80;;;;;;;;;;6321922;22;19999;-81
2023/04/09 07:35:35;;;;;;;9.32;4.00;;;;;;;;;;6324983;22;20247;-82
2023/04/09 07:38:01;;;;;;;6.55;3.65;;;;;;;;;;6296531;22;20030;-81
2023/04/09 07:40:27;;;;;;;5.95;3.53;;;;;;;;;;6325119;22;20047;-81
2023/04/09 07:42:57;;;;;;;4.45;3.40;;;;;;;;;;6298095;22;20046;-82
2023/04/09 07:45:27;;;;;;;7.97;3.45;;;;;;;;;;6296157;22;20019;-82
2023/04/09 07:47:53;;;;;;;12.88;4.30;;;;;;;;;;6297180;22;20015;-81
2023/04/09 07:50:20;;;;;;;6.63;3.92;;;;;;;;;;6326573;22;20010;-83
2023/04/09 07:52:48;;;;;;;7.30;3.90;;;;;;;;;;6301820;22;20095;-81
2023/04/09 07:55:21;;;;;;;7.30;4.03;;;;;;;;;;6327072;22;20000;-81
2023/04/09 07:57:50;;;;;;;8.95;3.83;;;;;;;;;;6325690;22;20023;-82
2023/04/09 08:00:19;;;;;;;9.20;3.63;;;;;;;;;;6329208;22;20512;-82
2023/04/09 08:02:45;;;;;;;7.40;3.08;;;;;;;;;;6326360;22;20081;-82
2023/04/09 08:05:12;;;;;;;8.77;4.10;;;;;;;;;;6297843;22;20027;-81
2023/04/09 08:07:40;;;;;;;6.82;3.60;;;;;;;;;;6301498;22;20327;-82
2023/04/09 08:10:14;;;;;;;7.53;4.28;;;;;;;;;;6297793;22;19999;-81
2023/04/09 08:12:47;;;;;;;5.50;3.40;;;;;;;;;;6298455;22;19995;-81
2023/04/09 08:15:17;;;;;;;7.55;4.00;;;;;;;;;;6301336;22;20002;-79
2023/04/09 08:17:46;;;;;;;12.30;3.75;;;;;;;;;;6301452;22;20007;-82
2023/04/09 08:20:20;;;;;;;10.30;3.60;;;;;;;;;;6329982;22;20054;-81
2023/04/09 08:22:48;;;;;;;6.30;3.45;;;;;;;;;;6300538;22;19987;-81
2023/04/09 08:25:18;;;;;;;6.30;3.58;;;;;;;;;;6300573;22;19987;-83
2023/04/09 08:27:44;;;;;;;6.63;3.35;;;;;;;;;;6328404;22;19976;-81
2023/04/09 08:30:10;;;;;;;6.65;3.58;;;;;;;;;;6300041;22;20015;-81
2023/04/09 08:32:37;;;;;;;7.20;3.38;;;;;;;;;;6324752;22;19995;-82
2023/04/09 08:35:03;;;;;;;7.35;3.50;;;;;;;;;;6322144;22;20006;-81
2023/04/09 08:37:29;;;;;;;7.80;3.85;;;;;;;;;;6321200;22;20346;-80
2023/04/09 08:39:57;;;;;;;10.98;4.50;;;;;;;;;;6323602;22;20011;-82
2023/04/09 08:42:58;;;;;;;5.53;3.22;;;;;;;;;;6312787;22;20350;-82
2023/04/09 08:45:27;;;;;;;9.07;3.90;;;;;;;;;;6309009;22;20478;-80
2023/04/09 08:47:53;;;;;;;6.40;4.45;;;;;;;;;;6315609;22;20042;-83
2023/04/09 08:50:20;;;;;;;5.22;3.17;;;;;;;;;;6323504;22;19998;-83
2023/04/09 08:52:47;;;;;;;8.73;3.97;;;;;;;;;;6318249;22;20074;-81
2023/04/09 08:55:14;;;;;;;8.75;4.28;;;;;;;;;;6321229;22;20019;-82
2023/04/09 08:57:40;;;;;;;7.53;3.70;;;;;;;;;;6322182;22;20011;-83
2023/04/09 09:00:07;;;;;;;5.20;3.25;;;;;;;;;;6316979;22;20022;-82
2023/04/09 09:02:34;;;;;;;7.88;4.10;;;;;;;;;;6318424;22;19988;-82
2023/04/09 09:05:00;;;;;;;5.68;3.45;;;;;;;;;;6322003;22;20020;-81
2023/04/09 09:07:28;;;;;;;7.35;3.50;;;;;;;;;;6315340;22;20015;-80
2023/04/09 09:09:58;;;;;;;8.55;3.78;;;;;;;;;;6313074;22;20022;-80
2023/04/09 09:12:38;;;;;;;4.32;3.40;;;;;;;;;;6309468;22;19992;-79
2023/04/09 09:15:05;;;;;;;8.57;3.65;;;;;;;;;;6313447;22;20066;-82
2023/04/09 09:17:31;;;;;;;9.55;3.70;;;;;;;;;;6311776;22;20010;-81
2023/04/09 09:19:58;;;;;;;10.05;4.00;;;;;;;;;;6292343;22;20007;-80
2023/04/09 09:22:25;;;;;;;5.57;3.58;;;;;;;;;;6293683;22;20442;-83
2023/04/09 09:24:52;;;;;;;4.97;3.78;;;;;;;;;;6330006;22;20799;-83
2023/04/09 09:27:32;;;;;;;10.13;3.88;;;;;;;;;;6313585;22;20010;-81
2023/04/09 09:29:58;;;;;;;7.97;5.15;;;;;;;;;;6345516;22;20023;-80
2023/04/09 09:32:25;;;;;;;7.35;4.50;;;;;;;;;;6315357;22;20011;-79
2023/04/09 09:35:03;;;;;;;7.05;4.05;;;;;;;;;;6347077;22;19994;-81
2023/04/09 09:37:30;;;;;;;6.15;4.15;;;;;;;;;;6343211;22;20050;-85
2023/04/09 09:39:56;;;;;;;9.52;4.57;;;;;;;;;;6319625;22;20028;-81
2023/04/09 09:42:23;;;;;;;9.23;4.40;;;;;;;;;;6346821;22;20007;-82
2023/04/09 09:44:50;;;;;;;7.32;4.32;;;;;;;;;;6351529;22;20013;-81
2023/04/09 09:47:20;;;;;;;7.32;4.35;;;;;;;;;;6347141;22;20332;-82
2023/04/09 09:49:50;;;;;;;10.32;4.30;;;;;;;;;;6313110;22;20019;-80
2023/04/09 09:52:20;;;;;;;6.55;4.25;;;;;;;;;;6309889;22;20033;-83
2023/04/09 09:54:47;;;;;;;8.15;4.50;;;;;;;;;;6309298;22;20009;-81
2023/04/09 09:57:16;;;;;;;8.05;5.07;;;;;;;;;;6313353;22;20002;-81
2023/04/09 10:00:03;;;;;;;8.15;5.43;;;;;;;;;;6312952;22;20066;-82
2023/04/09 10:02:31;;;;;;;9.10;4.80;;;;;;;;;;6310304;22;20063;-83
2023/04/09 10:05:00;;;;;;;10.45;4.47;;;;;;;;;;6337385;22;20896;-81
2023/04/09 10:07:27;;;;;;;13.75;4.88;;;;;;;;;;6315006;22;20038;-80
2023/04/09 10:09:56;;;;;;;7.75;4.82;;;;;;;;;;6315665;22;20010;-82
2023/04/09 10:12:22;;;;;;;6.35;4.60;;;;;;;;;;6318263;22;20003;-81
2023/04/09 10:14:49;;;;;;;13.13;4.70;;;;;;;;;;6347107;22;20006;-80
2023/04/09 10:17:15;;;;;;;7.82;4.40;;;;;;;;;;6339978;22;20267;-82
2023/04/09 10:19:47;;;;;;;12.10;4.78;;;;;;;;;;6340720;22;20063;-81
2023/04/09 10:22:15;;;;;;;6.28;4.30;;;;;;;;;;6341567;22;20340;-80
2023/04/09 10:24:42;;;;;;;10.82;5.07;;;;;;;;;;6313774;22;20093;-80
2023/04/09 10:27:11;;;;;;;7.85;4.32;;;;;;;;;;6320032;22;20013;-80
2023/04/09 10:29:45;;;;;;;11.02;4.70;;;;;;;;;;6347048;22;20003;-80
2023/04/09 10:32:11;;;;;;;9.57;4.57;;;;;;;;;;6317521;22;20010;-79
2023/04/09 10:34:39;;;;;;;9.60;5.20;;;;;;;;;;6319077;22;20006;-82
2023/04/09 10:37:07;;;;;;;12.35;5.63;;;;;;;;;;6318550;22;19991;-83
2023/04/09 10:39:33;;;;;;;9.77;4.57;;;;;;;;;;6319209;22;20653;-80
2023/04/09 10:42:04;;;;;;;5.90;4.78;;;;;;;;;;6344389;22;20387;-82
2023/04/09 10:44:31;;;;;;;9.43;4.65;;;;;;;;;;6323311;22;20007;-81
2023/04/09 10:46:57;;;;;;;9.63;4.75;;;;;;;;;;6349971;22;20049;-85
2023/04/09 10:49:25;;;;;;;10.65;5.75;;;;;;;;;;6343965;22;20030;-82
2023/04/09 10:51:51;;;;;;;8.73;5.15;;;;;;;;;;6318003;22;20009;-84
2023/04/09 10:57:08;;;;;;;10.88;6.10;;;;;;;;;;6307225;22;20446;-80
2023/04/09 10:59:35;;;;;;;9.95;4.43;;;;;;;;;;6317701;22;19999;-80
2023/04/09 11:02:01;;;;;;;10.07;5.10;;;;;;;;;;6317282;22;20025;-82
2023/04/09 11:04:37;;;;;;;8.35;4.63;;;;;;;;;;6317624;22;20403;-80
2023/04/09 11:07:05;;;;;;;12.00;4.80;;;;;;;;;;6319063;22;19999;-81
2023/04/09 11:09:35;;;;;;;5.25;3.92;;;;;;;;;;6290362;22;20010;-82
2023/04/09 11:12:02;;;;;;;13.55;5.40;;;;;;;;;;6317374;22;19995;-79
2023/04/09 11:14:28;;;;;;;9.07;4.10;;;;;;;;;;6321030;22;20007;-81
2023/04/09 11:16:57;;;;;;;7.00;5.30;;;;;;;;;;6297734;22;20007;-82
2023/04/09 11:19:23;;;;;;;9.52;4.40;;;;;;;;;;6294929;22;20013;-82
2023/04/09 11:21:49;;;;;;;12.20;5.10;;;;;;;;;;6316821;22;20083;-82
2023/04/09 11:24:18;;;;;;;10.85;4.22;;;;;;;;;;6288107;22;20011;-83
2023/04/09 11:26:46;;;;;;;7.55;4.05;;;;;;;;;;6315461;22;20033;-81
2023/04/09 11:29:12;;;;;;;9.05;4.90;;;;;;;;;;6314317;22;19995;-80
2023/04/09 11:31:38;;;;;;;11.27;4.20;;;;;;;;;;6286043;22;20114;-80
2023/04/09 11:34:04;;;;;;;7.65;4.22;;;;;;;;;;6312476;22;20212;-81
2023/04/09 11:36:31;;;;;;;7.53;4.00;;;;;;;;;;6312980;22;20010;-81
2023/04/09 11:38:58;;;;;;;7.22;3.92;;;;;;;;;;6285289;22;20003;-81
2023/04/09 11:41:32;;;;;;;8.95;4.50;;;;;;;;;;6312690;22;19999;-80
2023/04/09 11:43:59;;;;;;;8.43;4.72;;;;;;;;;;6313482;22;20453;-80
2023/04/09 11:46:26;;;;;;;8.48;4.28;;;;;;;;;;6313043;22;20007;-81
2023/04/09 11:48:53;;;;;;;9.95;4.00;;;;;;;;;;6315286;22;20049;-81
2023/04/09 11:51:19;;;;;;;10.85;4.95;;;;;;;;;;6313497;22;20007;-80
2023/04/09 11:53:50;;;;;;;12.80;5.03;;;;;;;;;;6314049;22;20465;-81
2023/04/09 11:56:16;;;;;;;11.65;3.75;;;;;;;;;;6312480;22;20015;-80
2023/04/09 11:58:48;;;;;;;7.68;3.97;;;;;;;;;;6286583;22;20053;-80
2023/04/09 12:01:15;;;;;;;8.98;4.00;;;;;;;;;;6284828;22;20054;-81
2023/04/09 12:03:41;;;;;;;11.57;4.40;;;;;;;;;;6313618;22;20003;-80
2023/04/09 12:06:11;;;;;;;7.18;4.35;;;;;;;;;;6287025;22;20007;-81
2023/04/09 12:08:37;;;;;;;7.75;4.05;;;;;;;;;;6314453;22;20064;-80
2023/04/09 12:11:14;;;;;;;9.23;4.45;;;;;;;;;;6287092;22;20003;-81
2023/04/09 12:13:43;;;;;;;7.03;4.38;;;;;;;;;;6315356;22;20029;-81
2023/04/09 12:16:09;;;;;;;8.35;4.50;;;;;;;;;;6287143;22;20034;-81
2023/04/09 12:18:39;;;;;;;13.07;5.00;;;;;;;;;;6315907;22;20014;-83
2023/04/09 12:21:05;;;;;;;15.55;5.90;;;;;;;;;;6316233;22;20010;-78
2023/04/09 12:23:32;;;;;;;9.85;4.70;;;;;;;;;;6313761;22;20054;-80
2023/04/09 12:26:00;;;;;;;16.52;5.13;;;;;;;;;;6317182;22;20037;-82
2023/04/09 12:28:26;;;;;;;9.80;5.78;;;;;;;;;;6288879;22;20099;-80
2023/04/09 12:30:53;;;;;;;12.40;4.97;;;;;;;;;;6315738;22;20338;-80
2023/04/09 12:33:19;;;;;;;9.23;4.30;;;;;;;;;;6288888;22;20033;-80
2023/04/09 12:35:45;;;;;;;11.32;4.45;;;;;;;;;;6287479;22;20034;-80
2023/04/09 12:38:12;;;;;;;5.22;3.92;;;;;;;;;;6315618;22;20010;-80
2023/04/09 12:40:38;;;;;;;12.15;4.82;;;;;;;;;;6288145;22;20087;-81
2023/04/09 12:43:04;;;;;;;9.43;5.03;;;;;;;;;;6297483;22;19999;-80
2023/04/09 12:45:31;;;;;;;12.90;5.03;;;;;;;;;;6320210;22;20023;-81
2023/04/09 12:47:57;;;;;;;10.23;4.80;;;;;;;;;;6289782;22;20003;-80
2023/04/09 12:50:23;;;;;;;9.65;5.05;;;;;;;;;;6290420;22;20081;-81
2023/04/09 12:52:49;;;;;;;9.40;5.32;;;;;;;;;;6315604;22;20003;-80
2023/04/09 12:55:15;;;;;;;11.70;4.97;;;;;;;;;;6288943;22;20036;-81
2023/04/09 12:57:47;;;;;;;10.63;4.55;;;;;;;;;;6288014;22;20015;-81
2023/04/09 13:00:14;;;;;;;7.13;4.40;;;;;;;;;;6287791;22;20003;-81
2023/04/09 13:02:40;;;;;;;10.63;4.70;;;;;;;;;;6313562;22;20003;-80
2023/04/09 13:05:07;;;;;;;11.23;5.13;;;;;;;;;;6287364;22;20311;-79
2023/04/09 13:07:33;;;;;;;6.45;4.50;;;;;;;;;;6313675;22;19999;-80
2023/04/09 13:09:59;;;;;;;13.15;5.40;;;;;;;;;;6323779;22;20006;-80
2023/04/09 13:12:25;;;;;;;10.25;5.22;;;;;;;;;;6299822;22;20022;-82
2023/04/09 13:14:53;;;;;;;10.70;5.90;;;;;;;;;;6299780;22;20019;-81
2023/04/09 13:17:37;;;;;;;13.60;5.05;;;;;;;;;;6306007;22;20022;-85
2023/04/09 13:20:04;;;;;;;11.90;5.35;;;;;;;;;;6321656;22;20027;-80
2023/04/09 13:22:30;;;;;;;9.95;4.72;;;;;;;;;;6320289;22;20006;-80
2023/04/09 13:24:56;;;;;;;11.75;5.40;;;;;;;;;;6293571;22;20015;-81
2023/04/09 13:27:22;;;;;;;13.68;5.88;;;;;;;;;;6286346;22;20009;-80
2023/04/09 13:29:48;;;;;;;12.85;5.63;;;;;;;;;;6287899;22;20076;-80
2023/04/09 13:32:14;;;;;;;13.60;5.32;;;;;;;;;;6291128;22;20014;-81
2023/04/09 13:34:40;;;;;;;14.57;6.20;;;;;;;;;;6290068;22;20007;-80
2023/04/09 13:37:07;;;;;;;11.68;5.90;;;;;;;;;;6314924;22;20003;-80
2023/04/09 13:39:33;;;;;;;8.73;6.35;;;;;;;;;;6318858;22;20007;-80
2023/04/09 13:41:59;;;;;;;10.88;6.65;;;;;;;;;;6292510;22;20013;-80
2023/04/09 13:44:26;;;;;;;9.02;5.82;;;;;;;;;;6317505;22;20006;-81
2023/04/09 13:46:52;;;;;;;10.82;5.80;;;;;;;;;;6291340;22;20006;-81
2023/04/09 13:49:18;;;;;;;12.88;5.80;;;;;;;;;;6290321;22;20007;-81
2023/04/09 13:51:44;;;;;;;10.52;5.82;;;;;;;;;;6290286;22;20037;-82
2023/04/09 13:54:11;;;;;;;13.13;5.32;;;;;;;;;;6316505;22;19999;-80
2023/04/09 13:56:37;;;;;;;14.32;6.45;;;;;;;;;;6314119;22;20392;-80
2023/04/09 13:59:03;;;;;;;9.60;5.78;;;;;;;;;;6313126;22;20007;-80
2023/04/09 14:01:30;;;;;;;13.40;5.88;;;;;;;;;;6313765;22;19995;-79
2023/04/09 14:03:56;;;;;;;9.05;5.13;;;;;;;;;;6315352;22;20010;-82
2023/04/09 14:06:22;;;;;;;10.52;5.80;;;;;;;;;;6290590;22;20063;-80
2023/04/09 14:08:48;;;;;;;13.10;5.57;;;;;;;;;;6315043;22;20000;-82
2023/04/09 14:11:15;;;;;;;9.48;6.20;;;;;;;;;;6286542;22;20007;-80
2023/04/09 14:13:41;;;;;;;11.00;6.15;;;;;;;;;;6313955;22;19995;-80
2023/04/09 14:16:08;;;;;;;8.77;6.22;;;;;;;;;;6314529;22;20003;-79
2023/04/09 14:18:34;;;;;;;12.05;5.78;;;;;;;;;;6314129;22;19999;-80
2023/04/09 14:21:00;;;;;;;10.90;4.57;;;;;;;;;;6312971;22;20043;-81
2023/04/09 14:23:26;;;;;;;13.23;4.55;;;;;;;;;;6286605;22;20011;-79
2023/04/09 14:25:52;;;;;;;8.32;4.57;;;;;;;;;;6313370;22;20007;-79
2023/04/09 14:28:19;;;;;;;10.95;4.55;;;;;;;;;;6289773;22;20420;-80
2023/04/09 14:30:45;;;;;;;9.13;4.55;;;;;;;;;;6287326;22;20022;-83
2023/04/09 14:33:11;;;;;;;11.30;4.82;;;;;;;;;;6315057;22;20006;-79
2023/04/09 14:35:37;;;;;;;7.70;3.97;;;;;;;;;;6316377;22;20003;-79
2023/04/09 14:38:03;;;;;;;10.52;4.30;;;;;;;;;;6286052;22;20030;-80
2023/04/09 14:40:30;;;;;;;17.67;5.15;;;;;;;;;;6284681;22;20363;-80
2023/04/09 14:42:57;;;;;;;8.88;4.75;;;;;;;;;;6315353;22;20065;-81
2023/04/09 14:45:23;;;;;;;9.30;4.50;;;;;;;;;;6315964;22;20003;-80
2023/04/09 14:47:49;;;;;;;14.07;4.13;;;;;;;;;;6317065;22;20114;-82